createdAt,value
2018-06-24T00:00:19.348Z,63.64
2018-06-24T00:01:29.359Z,62.49
2018-06-24T00:02:38.843Z,62.02
2018-06-24T00:03:48.582Z,62.68
2018-06-24T00:04:58.319Z,62.78
2018-06-24T00:06:08.061Z,62.21
2018-06-24T00:07:18.075Z,61.83
2018-06-24T00:08:28.081Z,61.54
2018-06-24T00:09:38.091Z,61.19
2018-06-24T00:10:47.833Z,62.24
2018-06-24T00:11:57.839Z,61.95
2018-06-24T00:13:07.316Z,61.86
2018-06-24T00:14:17.212Z,61.95
2018-06-24T00:15:27.097Z,63
2018-06-24T00:16:36.866Z,63.73
2018-06-24T00:17:46.869Z,64.31
2018-06-24T00:18:56.643Z,64.31
2018-06-24T00:20:06.133Z,64.02
2018-06-24T00:21:15.608Z,64.02
2018-06-24T00:22:25.617Z,65.07
2018-06-24T00:23:35.362Z,65.45
2018-06-24T00:24:45.130Z,67.07
2018-06-24T00:25:55.142Z,67.36
2018-06-24T00:27:04.616Z,67.71
2018-06-24T00:28:14.355Z,66.47
2018-06-24T00:29:24.369Z,67.23
2018-06-24T00:30:33.874Z,67.23
2018-06-24T00:31:43.613Z,67.23
2018-06-24T00:32:53.619Z,67.23
2018-06-24T00:34:03.631Z,67.61
2018-06-24T00:35:13.110Z,67.42
2018-06-24T00:36:22.862Z,68.38
2018-06-24T00:37:32.869Z,68.09
2018-06-24T00:38:42.353Z,68.38
2018-06-24T00:39:52.358Z,67.9
2018-06-24T00:41:02.367Z,69.14
2018-06-24T00:42:12.376Z,68.72
2018-06-24T00:43:21.850Z,69.29
2018-06-24T00:44:31.585Z,68.53
2018-06-24T00:45:41.331Z,69.29
2018-06-24T00:46:51.342Z,69.58
2018-06-24T00:48:01.348Z,69.58
2018-06-24T00:49:10.822Z,69.87
2018-06-24T00:50:20.832Z,69.77
2018-06-24T00:51:30.566Z,69.48
2018-06-24T00:52:40.044Z,69.68
2018-06-24T00:53:50.050Z,69.39
2018-06-24T00:54:59.797Z,69.29
2018-06-24T00:56:09.006Z,69.39
2018-06-24T00:57:19.016Z,69.87
2018-06-24T00:58:28.492Z,69.29
2018-06-24T00:59:38.497Z,69.48
2018-06-24T01:00:48.237Z,67.68
2018-06-24T01:01:57.974Z,68.05
2018-06-24T01:03:07.448Z,67.29
2018-06-24T01:04:16.919Z,67.2
2018-06-24T01:05:26.931Z,67.29
2018-06-24T01:06:36.406Z,67.42
2018-06-24T01:07:46.422Z,66.44
2018-06-24T01:08:55.900Z,66.05
2018-06-24T01:10:05.922Z,66.09
2018-06-24T01:11:15.960Z,65.42
2018-06-24T01:12:25.433Z,65.13
2018-06-24T01:13:34.910Z,65.99
2018-06-24T01:14:44.923Z,66.56
2018-06-24T01:15:54.938Z,66.56
2018-06-24T01:17:04.944Z,66.38
2018-06-24T01:18:14.687Z,66.28
2018-06-24T01:19:24.428Z,66.85
2018-06-24T01:20:34.169Z,66.66
2018-06-24T01:21:44.171Z,66.09
2018-06-24T01:22:53.911Z,65.99
2018-06-24T01:24:03.654Z,66.47
2018-06-24T01:25:13.395Z,65.13
2018-06-24T01:26:23.397Z,65.23
2018-06-24T01:27:33.136Z,65.13
2018-06-24T01:28:43.149Z,65.64
2018-06-24T01:29:53.153Z,66.09
2018-06-24T01:31:02.936Z,65.42
2018-06-24T01:32:12.410Z,65.13
2018-06-24T01:33:22.418Z,65.23
2018-06-24T01:34:32.420Z,64.94
2018-06-24T01:35:42.422Z,65.42
2018-06-24T01:36:52.171Z,65.13
2018-06-24T01:38:01.920Z,64.59
2018-06-24T01:39:11.933Z,64.75
2018-06-24T01:40:21.677Z,64.88
2018-06-24T01:41:31.686Z,64.97
2018-06-24T01:42:41.695Z,65.07
2018-06-24T01:43:51.710Z,65.07
2018-06-24T01:45:01.488Z,64.59
2018-06-24T01:46:10.960Z,64.69
2018-06-24T01:47:20.971Z,64.97
2018-06-24T01:48:31.070Z,64.69
2018-06-24T01:49:41.081Z,64.88
2018-06-24T01:50:51.138Z,64.97
2018-06-24T01:52:00.880Z,64.97
2018-06-24T01:53:10.624Z,64.88
2018-06-24T01:54:20.108Z,64.69
2018-06-24T01:55:30.114Z,64.97
2018-06-24T01:56:40.129Z,64.69
2018-06-24T01:57:50.140Z,64.78
2018-06-24T01:58:59.878Z,64.59
2018-06-24T02:00:09.614Z,64.59
2018-06-24T02:01:19.638Z,64.88
2018-06-24T02:02:33.149Z,64.69
2018-06-24T02:03:43.155Z,64.5
2018-06-24T02:04:53.168Z,64.88
2018-06-24T02:06:02.904Z,64.78
2018-06-24T02:07:12.411Z,64.78
2018-06-24T02:08:22.367Z,64.69
2018-06-24T02:09:32.375Z,65.07
2018-06-24T02:10:42.377Z,64.4
2018-06-24T02:11:52.127Z,65.07
2018-06-24T02:13:02.128Z,65.93
2018-06-24T02:14:11.859Z,66.18
2018-06-24T02:15:21.859Z,66.5
2018-06-24T02:16:31.603Z,66.38
2018-06-24T02:17:41.082Z,66.88
2018-06-24T02:18:51.093Z,66.56
2018-06-24T02:20:04.069Z,66.75
2018-06-24T02:21:13.811Z,67.42
2018-06-24T02:22:23.284Z,67.42
2018-06-24T02:23:33.019Z,68.18
2018-06-24T02:24:42.765Z,68.57
2018-06-24T02:25:51.975Z,67.8
2018-06-24T02:27:01.987Z,67.42
2018-06-24T02:28:11.993Z,67.23
2018-06-24T02:29:22.005Z,67.23
2018-06-24T02:30:31.533Z,68.18
2018-06-24T02:31:41.562Z,67.23
2018-06-24T02:32:51.037Z,67.9
2018-06-24T02:34:00.787Z,67.8
2018-06-24T02:35:10.799Z,68.66
2018-06-24T02:36:20.272Z,68.76
2018-06-24T02:37:30.340Z,67.99
2018-06-24T02:38:40.100Z,68.76
2018-06-24T02:39:49.310Z,67.61
2018-06-24T02:40:59.061Z,68.18
2018-06-24T02:42:09.070Z,68.47
2018-06-24T02:43:18.815Z,68.09
2018-06-24T02:44:28.558Z,68.66
2018-06-24T02:45:38.626Z,69.04
2018-06-24T02:46:48.387Z,68.28
2018-06-24T02:47:57.867Z,68.95
2018-06-24T02:49:07.618Z,69.33
2018-06-24T02:50:17.630Z,69.71
2018-06-24T02:51:27.117Z,70.09
2018-06-24T02:52:37.139Z,69.14
2018-06-24T02:53:46.589Z,70
2018-06-24T02:54:56.355Z,70
2018-06-24T02:56:06.382Z,69.33
2018-06-24T02:57:16.418Z,70
2018-06-24T02:58:26.166Z,70.19
2018-06-24T02:59:36.182Z,69.81
2018-06-24T03:03:24.936Z,69.81
2018-06-24T03:04:34.686Z,69.81
2018-06-24T03:05:44.696Z,69.62
2018-06-24T03:06:54.718Z,70.28
2018-06-24T03:08:04.194Z,71.04
2018-06-24T03:09:14.204Z,70.76
2018-06-24T03:10:23.413Z,72.28
2018-06-24T03:11:32.890Z,71.62
2018-06-24T03:12:42.106Z,72
2018-06-24T03:13:52.129Z,71.52
2018-06-24T03:15:02.150Z,70.67
2018-06-24T03:16:11.895Z,70.95
2018-06-24T03:17:21.909Z,70.38
2018-06-24T03:18:31.387Z,70.28
2018-06-24T03:19:41.165Z,70.76
2018-06-24T03:20:51.184Z,70.47
2018-06-24T03:22:00.666Z,70.19
2018-06-24T03:23:10.683Z,70
2018-06-24T03:24:20.716Z,70.19
2018-06-24T03:25:30.189Z,70.76
2018-06-24T03:26:40.203Z,70.95
2018-06-24T03:27:50.209Z,71.46
2018-06-24T03:28:59.680Z,71.37
2018-06-24T03:30:09.701Z,71.46
2018-06-24T03:31:19.476Z,70.79
2018-06-24T03:32:29.227Z,69.74
2018-06-24T03:33:38.967Z,70.98
2018-06-24T03:34:48.977Z,71.56
2018-06-24T03:35:58.715Z,69.65
2018-06-24T03:37:08.190Z,70.51
2018-06-24T03:38:17.928Z,70.13
2018-06-24T03:39:27.733Z,70.42
2018-06-24T03:40:37.474Z,70.42
2018-06-24T03:41:47.481Z,72.23
2018-06-24T03:42:56.956Z,71.18
2018-06-24T03:44:06.698Z,70.61
2018-06-24T03:45:16.447Z,69.74
2018-06-24T03:46:25.921Z,71.08
2018-06-24T03:47:35.928Z,71.08
2018-06-24T03:48:45.931Z,69.74
2018-06-24T03:49:55.941Z,68.41
2018-06-24T03:51:05.684Z,68.79
2018-06-24T03:52:15.689Z,68.79
2018-06-24T03:53:25.429Z,68.73
2018-06-24T03:54:35.173Z,68.26
2018-06-24T03:55:45.174Z,68.54
2018-06-24T03:56:55.176Z,67.87
2018-06-24T03:58:05.260Z,67.77
2018-06-24T03:59:15.365Z,68.06
2018-06-24T04:00:25.375Z,68.35
2018-06-24T04:01:35.388Z,67.77
2018-06-24T04:02:45.403Z,67.4
2018-06-24T04:03:55.413Z,67.3
2018-06-24T04:05:05.160Z,67.87
2018-06-24T04:06:14.904Z,69.02
2018-06-24T04:07:24.934Z,67.4
2018-06-24T04:08:34.676Z,66.44
2018-06-24T04:09:44.684Z,67.21
2018-06-24T04:10:54.712Z,67.4
2018-06-24T04:12:04.727Z,66.92
2018-06-24T04:13:14.736Z,67.01
2018-06-24T04:14:24.480Z,66.44
2018-06-24T04:15:33.953Z,67.11
2018-06-24T04:16:43.697Z,67.49
2018-06-24T04:17:53.707Z,67.4
2018-06-24T04:19:03.713Z,67.4
2018-06-24T04:20:13.726Z,66.92
2018-06-24T04:21:23.735Z,66.15
2018-06-24T04:22:33.750Z,66.15
2018-06-24T04:23:43.760Z,66.63
2018-06-24T04:24:53.764Z,66.15
2018-06-24T04:26:03.531Z,66.06
2018-06-24T04:27:13.547Z,66.15
2018-06-24T04:28:23.288Z,66.53
2018-06-24T04:29:33.036Z,66.63
2018-06-24T04:30:42.508Z,66.82
2018-06-24T04:31:52.249Z,66.63
2018-06-24T04:33:01.729Z,66.53
2018-06-24T04:34:11.478Z,66.53
2018-06-24T04:35:21.222Z,66.06
2018-06-24T04:36:30.429Z,65.48
2018-06-24T04:37:40.173Z,65.48
2018-06-24T04:38:50.190Z,66.53
2018-06-24T04:39:59.931Z,65.48
2018-06-24T04:41:09.678Z,66.15
2018-06-24T04:42:19.430Z,66.28
2018-06-24T04:43:29.182Z,67.43
2018-06-24T04:44:39.190Z,67.05
2018-06-24T04:45:49.199Z,66.63
2018-06-24T04:46:58.938Z,67.14
2018-06-24T04:48:08.953Z,66.56
2018-06-24T04:49:18.689Z,66.76
2018-06-24T04:50:28.215Z,67.71
2018-06-24T04:51:38.350Z,67.52
2018-06-24T04:52:48.750Z,67.33
2018-06-24T04:53:58.760Z,67.24
2018-06-24T04:55:08.502Z,67.43
2018-06-24T04:56:17.974Z,67.33
2018-06-24T04:57:27.986Z,66.95
2018-06-24T04:58:37.992Z,67.43
2018-06-24T04:59:47.740Z,67.33
2018-06-24T05:00:57.480Z,67.43
2018-06-24T05:02:07.226Z,67.24
2018-06-24T05:03:17.233Z,67.14
2018-06-24T05:04:26.976Z,67.62
2018-06-24T05:05:36.724Z,67.33
2018-06-24T05:06:46.737Z,67.55
2018-06-24T05:07:56.212Z,67.33
2018-06-24T05:09:05.698Z,67.27
2018-06-24T05:10:15.440Z,66.66
2018-06-24T05:11:25.180Z,66.79
2018-06-24T05:12:35.197Z,66.6
2018-06-24T05:13:44.937Z,66.03
2018-06-24T05:14:54.680Z,66.89
2018-06-24T05:16:04.690Z,67.55
2018-06-24T05:17:14.168Z,67.08
2018-06-24T05:18:24.173Z,67.55
2018-06-24T05:19:34.180Z,67.27
2018-06-24T05:20:43.922Z,66.13
2018-06-24T05:21:53.939Z,66.7
2018-06-24T05:23:03.683Z,67.46
2018-06-24T05:24:13.695Z,68.13
2018-06-24T05:25:23.168Z,68.41
2018-06-24T05:26:32.645Z,68.29
2018-06-24T05:27:42.480Z,68.57
2018-06-24T05:28:52.491Z,67.81
2018-06-24T05:30:02.560Z,68.48
2018-06-24T05:31:12.577Z,69.82
2018-06-24T05:32:22.315Z,70.2
2018-06-24T05:33:32.051Z,70.39
2018-06-24T05:34:41.793Z,70.96
2018-06-24T05:35:51.805Z,70.77
2018-06-24T05:37:01.809Z,70.58
2018-06-24T05:38:11.554Z,70.87
2018-06-24T05:39:21.563Z,70.58
2018-06-24T05:40:31.569Z,69.62
2018-06-24T05:41:41.047Z,70.58
2018-06-24T05:42:51.056Z,70.61
2018-06-24T05:44:00.592Z,69.56
2018-06-24T05:45:10.111Z,70.04
2018-06-24T05:46:20.127Z,69.76
2018-06-24T05:47:30.140Z,70.23
2018-06-24T05:48:40.157Z,69.47
2018-06-24T05:49:50.324Z,69.66
2018-06-24T05:50:59.797Z,69.76
2018-06-24T05:52:09.806Z,69.95
2018-06-24T05:53:19.278Z,67.65
2018-06-24T05:54:29.025Z,68.04
2018-06-24T05:55:38.768Z,68.9
2018-06-24T05:56:48.783Z,68.61
2018-06-24T05:57:58.536Z,68.32
2018-06-24T05:59:07.750Z,68.26
2018-06-24T06:00:17.761Z,67.49
2018-06-24T06:01:27.769Z,66.89
2018-06-24T06:02:37.519Z,66.25
2018-06-24T06:03:47.525Z,66.73
2018-06-24T06:04:57.544Z,66.73
2018-06-24T06:06:07.020Z,66.54
2018-06-24T06:07:16.765Z,68.35
2018-06-24T06:08:26.510Z,68.16
2018-06-24T06:09:36.249Z,68.64
2018-06-24T06:10:45.725Z,68.74
2018-06-24T06:11:55.748Z,68.35
2018-06-24T06:13:05.496Z,67.97
2018-06-24T06:14:15.515Z,68.35
2018-06-24T06:15:25.253Z,67.97
2018-06-24T06:16:35.262Z,67.78
2018-06-24T06:17:45.275Z,68.2
2018-06-24T06:18:55.282Z,67.43
2018-06-24T06:20:05.308Z,67.53
2018-06-24T06:21:15.325Z,67.14
2018-06-24T06:22:25.337Z,66.09
2018-06-24T06:23:35.076Z,65.33
2018-06-24T06:24:45.087Z,65.14
2018-06-24T06:25:55.093Z,65.04
2018-06-24T06:27:05.106Z,64.09
2018-06-24T06:28:14.585Z,64.12
2018-06-24T06:29:24.369Z,64.22
2018-06-24T06:30:34.112Z,64.88
2018-06-24T06:31:44.123Z,64.79
2018-06-24T06:32:53.875Z,64.98
2018-06-24T06:34:03.352Z,64.12
2018-06-24T06:35:12.835Z,63.93
2018-06-24T06:36:22.856Z,63.83
2018-06-24T06:37:32.600Z,65.08
2018-06-24T06:38:42.624Z,64.4
2018-06-24T06:39:52.640Z,64.37
2018-06-24T06:41:02.383Z,64.98
2018-06-24T06:42:12.132Z,64.02
2018-06-24T06:43:22.138Z,64.4
2018-06-24T06:44:31.690Z,62.77
2018-06-24T06:45:42.411Z,63.54
2018-06-24T06:46:53.533Z,63.76
2018-06-24T06:48:03.285Z,62.81
2018-06-24T06:49:13.027Z,62.43
2018-06-24T06:50:22.501Z,62.33
2018-06-24T06:51:32.248Z,61.79
2018-06-24T06:52:41.993Z,60.93
2018-06-24T06:53:52.006Z,60.83
2018-06-24T06:55:02.018Z,61.5
2018-06-24T06:56:11.497Z,60.35
2018-06-24T06:57:21.518Z,61.21
2018-06-24T06:58:31.527Z,61.21
2018-06-24T06:59:41.008Z,61.5
2018-06-24T07:00:50.752Z,60.93
2018-06-24T07:02:00.499Z,60.35
2018-06-24T07:03:09.989Z,60.57
2018-06-24T07:04:19.525Z,60.93
2018-06-24T07:05:29.280Z,60.83
2018-06-24T07:06:39.027Z,60.35
2018-06-24T07:07:49.046Z,59.2
2018-06-24T07:08:59.059Z,60.35
2018-06-24T07:10:09.072Z,60.19
2018-06-24T07:11:18.825Z,60.19
2018-06-24T07:12:28.575Z,59.23
2018-06-24T07:13:38.586Z,59.33
2018-06-24T07:14:48.328Z,58.84
2018-06-24T07:15:57.539Z,58.84
2018-06-24T07:17:07.553Z,58.84
2018-06-24T07:18:17.567Z,58.94
2018-06-24T07:19:27.585Z,59.13
2018-06-24T07:20:37.328Z,58.84
2018-06-24T07:21:46.808Z,58.94
2018-06-24T07:22:56.817Z,58.08
2018-06-24T07:24:06.835Z,58.17
2018-06-24T07:25:16.848Z,57.89
2018-06-24T07:26:26.859Z,57.21
2018-06-24T07:27:36.937Z,57.21
2018-06-24T07:28:46.820Z,56.74
2018-06-24T07:29:56.832Z,57.21
2018-06-24T07:31:06.586Z,57.92
2018-06-24T07:32:16.592Z,57.31
2018-06-24T07:33:26.856Z,57.12
2018-06-24T07:34:36.749Z,57.5
2018-06-24T07:35:46.491Z,57.6
2018-06-24T07:36:56.504Z,57.31
2018-06-24T07:38:06.243Z,56.29
2018-06-24T07:39:16.090Z,55.42
2018-06-24T07:40:25.735Z,55.9
2018-06-24T07:41:35.758Z,55.23
2018-06-24T07:42:45.773Z,55.33
2018-06-24T07:43:55.782Z,54.46
2018-06-24T07:45:05.803Z,54.46
2018-06-24T07:46:15.810Z,55.13
2018-06-24T07:47:25.839Z,55.62
2018-06-24T07:48:35.584Z,55.8
2018-06-24T07:49:45.594Z,54.17
2018-06-24T07:50:55.340Z,53.7
2018-06-24T07:52:05.354Z,54.44
2018-06-24T07:53:15.364Z,57.31
2018-06-24T07:54:25.106Z,55.58
2018-06-24T07:55:34.327Z,54.75
2018-06-24T07:56:44.337Z,53.6
2018-06-24T07:57:54.353Z,54.37
2018-06-24T07:59:04.372Z,54.94
2018-06-24T08:00:14.384Z,55.33
2018-06-24T08:01:24.126Z,54.97
2018-06-24T08:02:34.156Z,53.53
2018-06-24T08:03:43.633Z,53.53
2018-06-24T08:04:53.379Z,54.49
2018-06-24T08:06:03.402Z,54.42
2018-06-24T08:07:13.427Z,53.94
2018-06-24T08:08:23.171Z,53.66
2018-06-24T08:09:33.235Z,54.52
2018-06-24T08:10:43.262Z,54.45
2018-06-24T08:11:53.296Z,53.11
2018-06-24T08:13:03.364Z,52.24
2018-06-24T08:14:13.109Z,52.84
2018-06-24T08:15:22.857Z,51.88
2018-06-24T08:16:32.872Z,51.88
2018-06-24T08:17:42.616Z,51.69
2018-06-24T08:18:52.096Z,51.59
2018-06-24T08:20:02.133Z,50.82
2018-06-24T08:21:12.158Z,51.04
2018-06-24T08:22:22.174Z,50.85
2018-06-24T08:23:32.184Z,51.14
2018-06-24T08:24:42.247Z,51.23
2018-06-24T08:25:51.994Z,52
2018-06-24T08:27:02.014Z,52.58
2018-06-24T08:28:11.493Z,52.2
2018-06-24T08:29:21.235Z,52.29
2018-06-24T08:30:31.250Z,52.1
2018-06-24T08:31:40.907Z,51.33
2018-06-24T08:32:51.356Z,51.33
2018-06-24T08:34:00.837Z,51.91
2018-06-24T08:35:10.322Z,51.72
2018-06-24T08:36:20.068Z,52.1
2018-06-24T08:37:30.091Z,52
2018-06-24T08:38:40.102Z,51.72
2018-06-24T08:39:50.126Z,51.33
2018-06-24T08:41:00.140Z,51.14
2018-06-24T08:42:09.883Z,50.76
2018-06-24T08:43:19.365Z,50.08
2018-06-24T08:44:29.159Z,50.1
2018-06-24T08:45:38.907Z,49.72
2018-06-24T08:46:48.948Z,49.72
2018-06-24T08:47:58.429Z,50.01
2018-06-24T08:49:07.908Z,50.97
2018-06-24T08:50:17.389Z,51.26
2018-06-24T08:51:27.137Z,50.97
2018-06-24T08:52:36.888Z,49.91
2018-06-24T08:53:46.636Z,50.78
2018-06-24T08:54:56.655Z,51.81
2018-06-24T08:56:06.400Z,51.81
2018-06-24T08:57:16.157Z,52.29
2018-06-24T08:58:26.180Z,51.14
2018-06-24T08:59:36.196Z,51.04
2018-06-24T09:00:46.036Z,51.53
2018-06-24T09:01:56.076Z,50.76
2018-06-24T09:03:06.088Z,50.66
2018-06-24T09:04:16.099Z,51.4
2018-06-24T09:05:26.116Z,52.1
2018-06-24T09:06:36.141Z,52.55
2018-06-24T09:07:45.901Z,51.88
2018-06-24T09:08:55.917Z,52.2
2018-06-24T09:10:05.397Z,52
2018-06-24T09:11:15.158Z,52
2018-06-24T09:12:24.640Z,51.81
2018-06-24T09:13:34.436Z,52.03
2018-06-24T09:14:44.542Z,50.68
2018-06-24T09:15:54.484Z,50.49
2018-06-24T09:17:04.923Z,51.26
2018-06-24T09:18:14.669Z,50.68
2018-06-24T09:19:24.689Z,51.07
2018-06-24T09:20:34.442Z,50.68
2018-06-24T09:21:44.460Z,50.87
2018-06-24T09:22:54.476Z,51.17
2018-06-24T09:24:04.523Z,51.17
2018-06-24T09:25:14.279Z,50.87
2018-06-24T09:26:24.291Z,50.81
2018-06-24T09:27:34.337Z,50.71
2018-06-24T09:28:44.557Z,50.71
2018-06-24T09:29:54.038Z,50.04
2018-06-24T09:31:03.782Z,49.65
2018-06-24T09:32:13.261Z,50.04
2018-06-24T09:33:23.274Z,49.58
2018-06-24T09:34:32.755Z,48.21
2018-06-24T09:35:42.773Z,48.21
2018-06-24T09:36:52.791Z,48.79
2018-06-24T09:38:02.811Z,48.21
2018-06-24T09:39:12.555Z,47.05
2018-06-24T09:40:22.568Z,48.4
2018-06-24T09:41:32.590Z,49.55
2018-06-24T09:42:42.069Z,49.84
2018-06-24T09:43:52.082Z,47.34
2018-06-24T09:45:01.564Z,46.57
2018-06-24T09:46:11.049Z,47.72
2018-06-24T09:47:20.531Z,48.21
2018-06-24T09:48:30.282Z,43.49
2018-06-24T09:49:40.032Z,43.08
2018-06-24T09:50:50.053Z,43.4
2018-06-24T09:51:59.797Z,43.4
2018-06-24T09:53:09.546Z,43.68
2018-06-24T09:54:19.564Z,45.8
2018-06-24T09:55:29.578Z,47.24
2018-06-24T09:56:39.599Z,45.83
2018-06-24T09:57:49.083Z,45.73
2018-06-24T09:58:59.105Z,44.57
2018-06-24T10:00:09.126Z,43.71
2018-06-24T10:01:18.607Z,38.89
2018-06-24T10:02:28.351Z,40.99
2018-06-24T10:03:38.368Z,44.93
2018-06-24T10:04:48.427Z,42.82
2018-06-24T10:05:58.444Z,42.14
2018-06-24T10:07:07.936Z,39.93
2018-06-24T10:08:17.689Z,40.7
2018-06-24T10:09:27.438Z,42.24
2018-06-24T10:10:37.183Z,44.26
2018-06-24T10:11:46.932Z,46.36
2018-06-24T10:12:56.947Z,45.29
2018-06-24T10:14:06.698Z,43.68
2018-06-24T10:15:15.914Z,44.93
2018-06-24T10:16:25.662Z,45.59
2018-06-24T10:17:35.761Z,45.8
2018-06-24T10:18:45.808Z,46.74
2018-06-24T10:19:55.935Z,47.34
2018-06-24T10:21:05.950Z,47.15
2018-06-24T10:22:15.769Z,46.47
2018-06-24T10:23:25.783Z,46.31
2018-06-24T10:24:35.530Z,45.15
2018-06-24T10:25:45.018Z,46.01
2018-06-24T10:26:54.766Z,45.34
2018-06-24T10:28:04.521Z,43.8
2018-06-24T10:29:14.273Z,44.02
2018-06-24T10:30:24.326Z,44.02
2018-06-24T10:31:33.808Z,43.54
2018-06-24T10:32:43.556Z,42.88
2018-06-24T10:33:53.306Z,41.82
2018-06-24T10:35:03.064Z,41.92
2018-06-24T10:36:12.276Z,41.07
2018-06-24T10:37:25.748Z,40.78
2018-06-24T10:38:35.768Z,40.69
2018-06-24T10:39:45.510Z,40.7
2018-06-24T10:40:55.525Z,40.7
2018-06-24T10:42:05.585Z,41.77
2018-06-24T10:43:15.617Z,41.3
2018-06-24T10:44:25.634Z,41.6
2018-06-24T10:45:35.380Z,40.72
2018-06-24T10:46:45.132Z,41.13
2018-06-24T10:47:54.346Z,40.55
2018-06-24T10:49:04.105Z,39.49
2018-06-24T10:50:14.119Z,40.96
2018-06-24T10:51:23.866Z,40.19
2018-06-24T10:52:33.885Z,40.19
2018-06-24T10:53:43.633Z,39.51
2018-06-24T10:54:53.381Z,38.56
2018-06-24T10:56:03.420Z,38.37
2018-06-24T10:57:12.637Z,38.66
2018-06-24T10:58:22.386Z,38.87
2018-06-24T10:59:32.409Z,40.13
2018-06-24T11:00:42.160Z,39.45
2018-06-24T11:01:51.643Z,40.03
2018-06-24T11:03:01.183Z,39.55
2018-06-24T11:04:10.935Z,39.45
2018-06-24T11:05:20.956Z,39.18
2018-06-24T11:06:34.042Z,39.67
2018-06-24T11:07:43.798Z,38.5
2018-06-24T11:08:53.813Z,39.18
2018-06-24T11:10:03.568Z,38.99
2018-06-24T11:11:13.050Z,39.18
2018-06-24T11:12:22.532Z,38.6
2018-06-24T11:13:32.546Z,39.11
2018-06-24T11:14:42.292Z,39.01
2018-06-24T11:15:52.039Z,38.25
2018-06-24T11:17:01.526Z,37.67
2018-06-24T11:18:11.008Z,38.25
2018-06-24T11:19:21.033Z,37.28
2018-06-24T11:20:30.520Z,38.64
2018-06-24T11:21:40.542Z,37.67
2018-06-24T11:22:50.100Z,37.59
2018-06-24T11:24:00.153Z,38.37
2018-06-24T11:25:09.107Z,35.57
2018-06-24T11:26:18.859Z,36.83
2018-06-24T11:27:28.342Z,36.54
2018-06-24T11:28:38.355Z,34.99
2018-06-24T11:29:48.364Z,35.67
2018-06-24T11:30:58.461Z,35.98
2018-06-24T11:32:08.080Z,35.21
2018-06-24T11:33:18.096Z,33.46
2018-06-24T11:34:27.847Z,33.56
2018-06-24T11:35:37.883Z,33.65
2018-06-24T11:36:47.636Z,33.65
2018-06-24T11:37:57.691Z,33.46
2018-06-24T11:39:07.711Z,33.65
2018-06-24T11:40:17.205Z,32.79
2018-06-24T11:41:26.956Z,32.5
2018-06-24T11:42:36.444Z,31.16
2018-06-24T11:43:46.194Z,32.04
2018-06-24T11:44:56.253Z,31.07
2018-06-24T11:46:06.024Z,31.45
2018-06-24T11:47:16.055Z,30.59
2018-06-24T11:48:26.074Z,30.11
2018-06-24T11:49:35.825Z,28.86
2018-06-24T11:50:45.580Z,30.22
2018-06-24T11:51:55.334Z,29.75
2018-06-24T11:53:05.402Z,28.88
2018-06-24T11:54:15.155Z,28.4
2018-06-24T11:55:24.644Z,29.38
2018-06-24T11:56:34.136Z,29.18
2018-06-24T11:57:44.157Z,29.76
2018-06-24T11:58:53.916Z,30.46
2018-06-24T12:00:03.955Z,30.26
2018-06-24T12:01:13.732Z,29.78
2018-06-24T12:02:23.764Z,29.02
2018-06-24T12:03:33.673Z,29.79
2018-06-24T12:04:43.433Z,28.43
2018-06-24T12:05:53.183Z,28.44
2018-06-24T12:07:02.674Z,27.86
2018-06-24T12:08:12.705Z,27.28
2018-06-24T12:09:22.193Z,26.89
2018-06-24T12:10:31.681Z,27.76
2018-06-24T12:11:41.435Z,26.98
2018-06-24T12:12:51.460Z,26.9
2018-06-24T12:14:01.485Z,27
2018-06-24T12:15:11.247Z,26.62
2018-06-24T12:16:21.325Z,26.82
2018-06-24T12:17:31.086Z,25.65
2018-06-24T12:18:40.579Z,25.85
2018-06-24T12:19:49.802Z,26.93
2018-06-24T12:20:59.832Z,26.74
2018-06-24T12:22:09.579Z,25.76
2018-06-24T12:23:19.068Z,25.67
2018-06-24T12:24:29.092Z,25.39
2018-06-24T12:25:38.848Z,25.68
2018-06-24T12:26:48.882Z,24.51
2018-06-24T12:27:58.637Z,25.57
2018-06-24T12:29:08.127Z,26.06
2018-06-24T12:30:18.152Z,25.67
2018-06-24T12:31:28.172Z,27.31
2018-06-24T12:32:38.195Z,26.92
2018-06-24T12:33:47.687Z,27.41
2018-06-24T12:34:57.446Z,26.63
2018-06-24T12:36:07.208Z,26.74
2018-06-24T12:37:16.962Z,26.64
2018-06-24T12:38:26.871Z,26.84
2018-06-24T12:39:36.911Z,26.86
2018-06-24T12:40:46.933Z,26.93
2018-06-24T12:41:56.953Z,26.45
2018-06-24T12:43:06.715Z,25.76
2018-06-24T12:44:16.744Z,26.35
2018-06-24T12:45:26.245Z,25.49
2018-06-24T12:46:36.269Z,26.45
2018-06-24T12:47:46.026Z,25.47
2018-06-24T12:48:55.787Z,26.43
2018-06-24T12:50:05.820Z,26.82
2018-06-24T12:51:15.582Z,26.63
2018-06-24T12:52:25.339Z,26.74
2018-06-24T12:53:34.835Z,26.54
2018-06-24T12:54:44.591Z,26.64
2018-06-24T12:55:54.081Z,26.63
2018-06-24T12:57:03.847Z,26.43
2018-06-24T12:58:14.063Z,26.74
2018-06-24T12:59:25.048Z,25.46
2018-06-24T13:00:38.446Z,26.34
2018-06-24T13:01:50.988Z,26.72
2018-06-24T13:03:00.743Z,25.46
2018-06-24T13:04:09.963Z,26.91
2018-06-24T13:05:20.040Z,27.09
2018-06-24T13:06:29.940Z,27.19
2018-06-24T13:07:39.968Z,28.44
2018-06-24T13:08:49.724Z,27.87
2018-06-24T13:09:59.485Z,28.55
2018-06-24T13:11:09.519Z,27.48
2018-06-24T13:12:19.542Z,27.09
2018-06-24T13:13:29.572Z,28.36
2018-06-24T13:14:39.591Z,28.26
2018-06-24T13:15:49.614Z,28.15
2018-06-24T13:16:59.641Z,28.25
2018-06-24T13:18:09.405Z,28.36
2018-06-24T13:19:18.631Z,28.54
2018-06-24T13:20:28.119Z,28.93
2018-06-24T13:21:37.896Z,28.36
2018-06-24T13:22:47.925Z,28.55
2018-06-24T13:23:58.009Z,28.45
2018-06-24T13:25:07.504Z,27.58
2018-06-24T13:26:17.539Z,28.26
2018-06-24T13:27:27.561Z,28.55
2018-06-24T13:28:37.052Z,28.15
2018-06-24T13:29:47.073Z,28.54
2018-06-24T13:30:57.096Z,28.14
2018-06-24T13:32:06.603Z,28.63
2018-06-24T13:33:16.622Z,29.3
2018-06-24T13:34:26.379Z,29.02
2018-06-24T13:35:36.397Z,29.21
2018-06-24T13:36:46.155Z,30.28
2018-06-24T13:37:56.174Z,29.97
2018-06-24T13:39:06.194Z,30.07
2018-06-24T13:40:16.342Z,30.94
2018-06-24T13:41:26.593Z,30.93
2018-06-24T13:42:36.082Z,30.65
2018-06-24T13:43:45.037Z,30.75
2018-06-24T13:44:55.059Z,30.36
2018-06-24T13:46:04.277Z,30.26
2018-06-24T13:47:14.302Z,30.93
2018-06-24T13:48:24.064Z,31.22
2018-06-24T13:49:33.817Z,31.13
2018-06-24T13:50:43.843Z,31.03
2018-06-24T13:51:53.331Z,31.61
2018-06-24T13:53:03.084Z,31.51
2018-06-24T13:54:12.847Z,31.22
2018-06-24T13:55:22.604Z,30.44
2018-06-24T13:56:32.616Z,29.47
2018-06-24T13:57:41.835Z,28.99
2018-06-24T13:58:51.861Z,29.28
2018-06-24T14:00:01.891Z,30.44
2018-06-24T14:01:11.700Z,29.66
2018-06-24T14:02:21.461Z,29.47
2018-06-24T14:03:31.215Z,29.66
2018-06-24T14:04:40.972Z,29.18
2018-06-24T14:05:50.194Z,30.05
2018-06-24T14:07:00.249Z,30.05
2018-06-24T14:08:10.005Z,30.25
2018-06-24T14:09:19.497Z,29.97
2018-06-24T14:10:29.256Z,30.46
2018-06-24T14:11:39.006Z,30.17
2018-06-24T14:12:49.030Z,30.07
2018-06-24T14:13:58.861Z,29.66
2018-06-24T14:15:09.226Z,29.76
2018-06-24T14:16:19.249Z,31.13
2018-06-24T14:17:29.002Z,31.81
2018-06-24T14:18:38.755Z,31.71
2018-06-24T14:19:48.512Z,31.71
2018-06-24T14:20:58.534Z,31.22
2018-06-24T14:22:08.026Z,30.93
2018-06-24T14:23:18.244Z,30.35
2018-06-24T14:24:28.353Z,29.78
2018-06-24T14:25:38.112Z,29.88
2018-06-24T14:26:48.149Z,29.88
2018-06-24T14:27:57.967Z,31.24
2018-06-24T14:29:07.988Z,31.34
2018-06-24T14:30:17.213Z,29.68
2018-06-24T14:31:26.705Z,30.57
2018-06-24T14:32:36.733Z,29.3
2018-06-24T14:33:46.227Z,27.75
2018-06-24T14:34:56.245Z,29.49
2018-06-24T14:36:06.275Z,29.97
2018-06-24T14:37:16.030Z,29.97
2018-06-24T14:38:26.058Z,29.19
2018-06-24T14:39:35.822Z,30.55
2018-06-24T14:40:45.839Z,30.18
2018-06-24T14:41:55.919Z,29.89
2018-06-24T14:43:05.673Z,31.16
2018-06-24T14:44:15.432Z,31.35
2018-06-24T14:45:25.194Z,30.38
2018-06-24T14:46:35.212Z,30.67
2018-06-24T14:47:44.966Z,29.99
2018-06-24T14:48:54.989Z,29.69
2018-06-24T14:50:04.742Z,28.74
2018-06-24T14:51:14.760Z,29.13
2018-06-24T14:52:24.783Z,30.39
2018-06-24T14:53:34.804Z,28.83
2018-06-24T14:54:44.298Z,28.26
2018-06-24T14:55:54.053Z,27.98
2018-06-24T14:57:03.822Z,27.79
2018-06-24T14:58:13.304Z,27.7
2018-06-24T14:59:22.795Z,27.13
2018-06-24T15:00:32.817Z,25.86
2018-06-24T15:01:42.906Z,26.07
2018-06-24T15:02:52.498Z,25.49
2018-06-24T15:04:02.527Z,25.5
2018-06-24T15:05:12.018Z,25.6